North Liberty, Ohio
Current Conditions -  °F | °C
As of 11:15 PM on Sunday 21 Dec 2014 (Local Time) from K4I3 Reporting Station
Clear Clear  
Wind Chill: 19°   Ceiling: Unl
Heat Index: 25°   Visibility: 7mi
Dew Point: 23°   Wind: 5mph
Humidity: 93%   Direction: 60°ENE
Pressure: 30.15"   Gusts: NA
Location:  40.557°N, 82.3946°W
Report Text: K4I3 220415Z AUTO 06004KT 7SM CLR M04/M05 A3015 RMK AO2
Loading
Personal Weather Stations






























Interactive Weather Map New forecast layout! Learn more

10-Day Weather Forecast

Advertisements
Track Severe Weather on mobile